createdAt,value
2022-12-04T00:01:40.322Z,10.27
2022-12-04T00:04:17.604Z,10.55
2022-12-04T00:07:16.296Z,9.50
2022-12-04T00:10:11.247Z,9.30
2022-12-04T00:13:25.059Z,8.35
2022-12-04T00:16:07.367Z,9.40
2022-12-04T00:18:44.988Z,9.32
2022-12-04T00:21:22.601Z,10.85
2022-12-04T00:23:58.542Z,8.90
2022-12-04T00:27:18.505Z,10.00
2022-12-04T00:30:13.759Z,6.72
2022-12-04T00:33:38.660Z,9.35
2022-12-04T00:36:29.560Z,9.75
2022-12-04T00:39:15.140Z,4.32
2022-12-04T00:41:52.041Z,9.65
2022-12-04T00:44:22.816Z,10.18
2022-12-04T00:46:54.979Z,9.38
2022-12-04T00:49:22.932Z,9.48
2022-12-04T00:52:00.310Z,8.50
2022-12-04T00:54:47.904Z,8.85
2022-12-04T00:57:42.804Z,8.20
2022-12-04T01:01:07.664Z,7.90
2022-12-04T01:04:02.599Z,9.90
2022-12-04T01:06:32.342Z,7.60
2022-12-04T01:09:04.344Z,8.73
2022-12-04T01:11:33.888Z,9.45
2022-12-04T01:14:02.157Z,9.90
2022-12-04T01:16:35.205Z,9.35
2022-12-04T01:19:03.678Z,9.15
2022-12-04T01:21:31.077Z,10.30
2022-12-04T01:24:01.388Z,9.80
2022-12-04T01:26:29.326Z,9.68
2022-12-04T01:29:06.760Z,7.38
2022-12-04T01:31:39.028Z,8.68
2022-12-04T01:34:06.833Z,9.70
2022-12-04T01:36:34.544Z,7.18
2022-12-04T01:39:02.249Z,9.38
2022-12-04T01:41:34.404Z,9.75
2022-12-04T01:44:17.095Z,9.30
2022-12-04T01:46:47.349Z,10.48
2022-12-04T01:49:34.955Z,9.20
2022-12-04T01:52:28.988Z,10.32
2022-12-04T01:55:05.181Z,9.55
2022-12-04T01:57:41.159Z,9.23
2022-12-04T02:00:17.332Z,9.55
2022-12-04T02:02:47.501Z,9.73
2022-12-04T02:08:06.708Z,8.30
2022-12-04T02:10:57.630Z,8.90
2022-12-04T02:13:37.620Z,8.25
2022-12-04T02:16:53.007Z,10.07
2022-12-04T02:20:04.345Z,6.97
2022-12-04T02:23:04.745Z,9.30
2022-12-04T02:25:41.253Z,8.82
2022-12-04T02:28:33.484Z,9.15
2022-12-04T02:31:03.880Z,8.77
2022-12-04T02:33:42.135Z,8.55
2022-12-04T02:36:27.526Z,9.50
2022-12-04T02:39:20.652Z,7.38
2022-12-04T02:42:31.812Z,9.48
2022-12-04T02:45:22.889Z,9.23
2022-12-04T02:47:55.438Z,8.02
2022-12-04T02:50:24.419Z,8.23
2022-12-04T02:52:58.926Z,9.20
2022-12-04T02:55:35.910Z,9.13
2022-12-04T02:58:14.267Z,9.10
2022-12-04T03:00:55.421Z,9.65
2022-12-04T03:03:33.205Z,9.90
2022-12-04T03:06:14.636Z,9.90
2022-12-04T03:08:52.297Z,3.60
2022-12-04T03:14:36.817Z,8.68
2022-12-04T03:17:22.432Z,6.70
2022-12-04T03:24:06.079Z,11.02
2022-12-04T03:26:55.369Z,6.50
2022-12-04T03:29:54.910Z,8.45
2022-12-04T03:33:36.105Z,9.50
2022-12-04T03:36:27.892Z,9.23
2022-12-04T03:39:04.362Z,9.45
2022-12-04T03:41:55.421Z,10.10
2022-12-04T03:44:39.361Z,9.48
2022-12-04T03:47:12.303Z,8.40
2022-12-04T03:50:10.673Z,8.02
2022-12-04T03:52:54.552Z,10.40
2022-12-04T03:55:49.540Z,9.52
2022-12-04T03:58:27.834Z,10.18
2022-12-04T04:01:09.847Z,10.55
2022-12-04T04:03:50.045Z,10.23
2022-12-04T04:06:46.397Z,7.80
2022-12-04T04:09:28.196Z,9.63
2022-12-04T04:11:59.678Z,9.68
2022-12-04T04:15:07.568Z,8.95
2022-12-04T04:18:02.763Z,7.45
2022-12-04T04:21:05.767Z,8.32
2022-12-04T04:23:58.128Z,8.98
2022-12-04T04:26:26.870Z,7.35
2022-12-04T04:28:54.873Z,9.68
2022-12-04T04:31:33.291Z,9.00
2022-12-04T04:34:06.726Z,9.45
2022-12-04T04:36:46.486Z,9.25
2022-12-04T04:39:23.417Z,8.68
2022-12-04T04:42:04.755Z,9.80
2022-12-04T04:44:51.230Z,4.25
2022-12-04T04:47:49.850Z,8.85
2022-12-04T04:50:19.198Z,8.00
2022-12-04T04:52:53.846Z,8.02
2022-12-04T04:55:22.454Z,8.45
2022-12-04T04:57:49.732Z,8.52
2022-12-04T05:00:20.361Z,7.88
2022-12-04T05:02:50.326Z,8.32
2022-12-04T05:07:46.058Z,7.60
2022-12-04T05:10:14.021Z,6.35
2022-12-04T05:12:41.401Z,7.78
2022-12-04T05:15:10.741Z,8.23
2022-12-04T05:17:38.513Z,7.82
2022-12-04T05:20:06.999Z,5.50
2022-12-04T05:22:36.024Z,8.55
2022-12-04T05:25:04.330Z,7.38
2022-12-04T05:27:32.095Z,8.20
2022-12-04T05:29:59.723Z,8.50
2022-12-04T05:32:29.097Z,7.20
2022-12-04T05:34:57.896Z,7.50
2022-12-04T05:37:25.712Z,6.63
2022-12-04T05:39:53.595Z,5.28
2022-12-04T05:42:21.088Z,7.90
2022-12-04T05:44:49.742Z,9.02
2022-12-04T05:47:17.236Z,6.82
2022-12-04T05:49:45.116Z,6.97
2022-12-04T05:52:13.035Z,9.38
2022-12-04T05:54:40.571Z,6.47
2022-12-04T05:57:08.157Z,7.03
2022-12-04T05:59:35.860Z,6.75
2022-12-04T06:02:03.428Z,7.43
2022-12-04T06:04:31.030Z,8.10
2022-12-04T06:07:14.482Z,7.78
2022-12-04T06:09:52.083Z,8.35
2022-12-04T06:12:22.487Z,10.68
2022-12-04T06:14:53.015Z,8.80
2022-12-04T06:17:24.468Z,6.63
2022-12-04T06:19:55.100Z,8.48
2022-12-04T06:22:25.293Z,4.60
2022-12-04T06:24:53.047Z,8.63
2022-12-04T06:27:28.678Z,10.05
2022-12-04T06:29:56.891Z,7.78
2022-12-04T06:32:24.331Z,8.82
2022-12-04T06:34:53.061Z,8.63
2022-12-04T06:37:22.203Z,9.63
2022-12-04T06:39:49.674Z,10.65
2022-12-04T06:42:17.321Z,11.00
2022-12-04T06:44:44.749Z,9.52
2022-12-04T06:47:12.103Z,10.50
2022-12-04T06:49:39.576Z,9.55
2022-12-04T06:52:06.585Z,11.98
2022-12-04T06:54:33.878Z,10.07
2022-12-04T06:57:01.287Z,10.32
2022-12-04T06:59:28.742Z,10.35
2022-12-04T07:01:58.507Z,11.25
2022-12-04T07:04:26.202Z,12.23
2022-12-04T07:06:54.579Z,9.32
2022-12-04T07:09:23.204Z,10.20
2022-12-04T07:11:50.472Z,8.20
2022-12-04T07:14:18.346Z,9.90
2022-12-04T07:16:46.158Z,10.68
2022-12-04T07:19:14.564Z,10.85
2022-12-04T07:21:42.476Z,11.60
2022-12-04T07:24:15.161Z,10.00
2022-12-04T07:26:43.296Z,9.45
2022-12-04T07:29:10.958Z,10.15
2022-12-04T07:31:38.771Z,9.55
2022-12-04T07:34:06.204Z,10.90
2022-12-04T07:36:33.683Z,8.30
2022-12-04T07:39:01.523Z,9.18
2022-12-04T07:41:29.479Z,11.48
2022-12-04T07:43:56.953Z,9.57
2022-12-04T07:46:26.910Z,10.05
2022-12-04T07:48:59.252Z,11.02
2022-12-04T07:51:29.426Z,10.10
2022-12-04T07:54:03.815Z,9.73
2022-12-04T07:56:35.561Z,10.00
2022-12-04T07:59:03.102Z,9.95
2022-12-04T08:01:34.996Z,12.10
2022-12-04T08:04:03.667Z,10.65
2022-12-04T08:07:21.387Z,11.00
2022-12-04T08:10:12.813Z,10.40
2022-12-04T08:12:43.553Z,11.57
2022-12-04T08:15:14.273Z,10.80
2022-12-04T08:17:44.608Z,10.70
2022-12-04T08:20:14.717Z,8.68
2022-12-04T08:22:45.425Z,8.30
2022-12-04T08:25:13.245Z,11.77
2022-12-04T08:27:47.734Z,10.52
2022-12-04T08:30:15.362Z,11.95
2022-12-04T08:32:42.425Z,12.55
2022-12-04T08:35:09.811Z,10.05
2022-12-04T08:37:37.049Z,11.25
2022-12-04T08:40:04.492Z,11.18
2022-12-04T08:42:32.332Z,11.20
2022-12-04T08:44:59.605Z,11.48
2022-12-04T08:47:26.909Z,11.25
2022-12-04T08:49:54.625Z,9.77
2022-12-04T08:52:22.248Z,12.00
2022-12-04T08:54:51.477Z,12.07
2022-12-04T08:57:18.723Z,10.80
2022-12-04T08:59:46.413Z,11.63
2022-12-04T09:02:14.060Z,10.35
2022-12-04T09:04:41.342Z,9.77
2022-12-04T09:07:11.681Z,11.00
2022-12-04T09:14:44.832Z,9.07
2022-12-04T09:17:15.042Z,6.57
2022-12-04T09:19:42.608Z,9.63
2022-12-04T09:22:10.893Z,8.48
2022-12-04T09:24:38.239Z,8.80
2022-12-04T09:27:08.699Z,10.40
2022-12-04T09:29:42.925Z,9.02
2022-12-04T09:32:10.602Z,9.30
2022-12-04T09:34:38.064Z,9.30
2022-12-04T09:37:05.508Z,10.20
2022-12-04T09:39:32.922Z,5.97
2022-12-04T09:42:28.145Z,8.98
2022-12-04T09:45:17.846Z,10.85
2022-12-04T09:47:48.502Z,9.20
2022-12-04T09:50:21.083Z,9.43
2022-12-04T09:53:06.268Z,10.90
2022-12-04T09:55:39.162Z,8.82
2022-12-04T09:58:14.149Z,9.95
2022-12-04T10:00:45.978Z,9.30
2022-12-04T10:03:19.287Z,8.07
2022-12-04T10:06:11.947Z,9.43
2022-12-04T10:08:42.032Z,8.45
2022-12-04T10:14:23.521Z,8.95
2022-12-04T10:17:15.434Z,9.50
2022-12-04T10:19:57.136Z,8.80
2022-12-04T10:22:36.041Z,9.23
2022-12-04T10:25:24.352Z,9.27
2022-12-04T10:28:03.447Z,9.77
2022-12-04T10:30:34.970Z,9.57
2022-12-04T10:33:11.820Z,10.18
2022-12-04T10:35:43.827Z,5.03
2022-12-04T10:38:32.733Z,9.85
2022-12-04T10:41:25.951Z,7.07
2022-12-04T10:43:53.301Z,10.02
2022-12-04T10:46:25.044Z,8.45
2022-12-04T10:48:58.473Z,9.32
2022-12-04T10:51:26.450Z,9.05
2022-12-04T10:53:54.248Z,7.05
2022-12-04T10:56:26.015Z,10.35
2022-12-04T10:58:57.484Z,9.65
2022-12-04T11:01:25.231Z,8.35
2022-12-04T11:04:12.225Z,9.85
2022-12-04T11:06:39.918Z,9.48
2022-12-04T11:09:07.720Z,8.00
2022-12-04T11:11:35.922Z,8.27
2022-12-04T11:14:03.019Z,5.47
2022-12-04T11:16:39.334Z,10.00
2022-12-04T11:19:28.885Z,9.00
2022-12-04T11:22:05.273Z,10.38
2022-12-04T11:24:37.684Z,9.73
2022-12-04T11:27:06.286Z,9.55
2022-12-04T11:29:38.629Z,9.95
2022-12-04T11:32:08.163Z,9.27
2022-12-04T11:34:41.340Z,7.60
2022-12-04T11:37:21.242Z,10.05
2022-12-04T11:39:49.402Z,9.70
2022-12-04T11:42:25.394Z,5.35
2022-12-04T11:44:58.027Z,10.80
2022-12-04T11:47:27.761Z,8.77
2022-12-04T11:50:15.394Z,10.57
2022-12-04T11:52:59.245Z,9.23
2022-12-04T11:55:39.413Z,10.00
2022-12-04T11:58:37.330Z,7.80
2022-12-04T12:01:30.972Z,9.10
2022-12-04T12:04:21.687Z,10.00
2022-12-04T12:07:38.799Z,8.05
2022-12-04T12:10:44.258Z,7.30
2022-12-04T12:16:41.479Z,9.65
2022-12-04T12:19:19.343Z,7.63
2022-12-04T12:22:11.592Z,8.65
2022-12-04T12:24:54.409Z,6.93
2022-12-04T12:28:09.682Z,7.55
2022-12-04T12:31:02.471Z,9.73
2022-12-04T12:33:55.978Z,7.72
2022-12-04T12:36:27.179Z,8.68
2022-12-04T12:39:03.219Z,9.70
2022-12-04T12:41:44.285Z,8.85
2022-12-04T12:44:23.412Z,7.68
2022-12-04T12:46:58.563Z,10.18
2022-12-04T12:49:34.723Z,9.63
2022-12-04T12:54:39.813Z,8.77
2022-12-04T12:57:34.831Z,5.53
2022-12-04T13:00:14.203Z,8.52
2022-12-04T13:03:17.638Z,7.88
2022-12-04T13:05:48.843Z,6.25
2022-12-04T13:08:20.296Z,5.03
2022-12-04T13:10:58.543Z,7.88
2022-12-04T13:13:30.032Z,8.63
2022-12-04T13:16:11.725Z,7.55
2022-12-04T13:18:49.495Z,8.93
2022-12-04T13:21:29.951Z,9.43
2022-12-04T13:24:30.803Z,6.80
2022-12-04T13:27:29.952Z,7.93
2022-12-04T13:30:22.384Z,8.07
2022-12-04T13:33:11.409Z,6.28
2022-12-04T13:35:39.323Z,5.65
2022-12-04T13:38:25.461Z,8.65
2022-12-04T13:40:56.777Z,5.88
2022-12-04T13:43:42.293Z,6.72
2022-12-04T13:46:34.319Z,7.78
2022-12-04T13:49:29.680Z,6.97
2022-12-04T13:51:59.532Z,6.05
2022-12-04T13:54:36.634Z,5.72
2022-12-04T13:57:17.111Z,6.97
2022-12-04T13:59:45.239Z,7.65
2022-12-04T14:02:23.735Z,8.30
2022-12-04T14:04:56.932Z,5.63
2022-12-04T14:07:46.917Z,7.55
2022-12-04T14:10:21.678Z,7.57
2022-12-04T14:15:38.289Z,7.57
2022-12-04T14:18:11.816Z,8.30
2022-12-04T14:20:41.682Z,7.32
2022-12-04T14:23:26.657Z,5.82
2022-12-04T14:25:58.829Z,5.55
2022-12-04T14:28:36.129Z,7.07
2022-12-04T14:31:41.451Z,7.28
2022-12-04T14:34:36.668Z,6.57
2022-12-04T14:37:06.207Z,5.70
2022-12-04T14:39:45.264Z,7.47
2022-12-04T14:42:38.163Z,5.22
2022-12-04T14:46:05.254Z,6.75
2022-12-04T14:49:13.955Z,5.38
2022-12-04T14:52:15.622Z,5.20
2022-12-04T14:55:03.587Z,4.70
2022-12-04T14:57:53.916Z,4.05
2022-12-04T15:00:24.921Z,5.47
2022-12-04T15:03:13.328Z,4.75
2022-12-04T15:05:45.228Z,4.70
2022-12-04T15:08:20.223Z,6.13
2022-12-04T15:11:10.233Z,6.25
2022-12-04T15:13:38.647Z,5.47
2022-12-04T15:16:20.943Z,5.43
2022-12-04T15:18:57.605Z,4.78
2022-12-04T15:21:46.173Z,6.20
2022-12-04T15:24:22.720Z,5.93
2022-12-04T15:26:53.452Z,5.68
2022-12-04T15:29:25.659Z,5.38
2022-12-04T15:31:57.356Z,4.40
2022-12-04T15:34:37.268Z,5.72
2022-12-04T15:37:28.984Z,6.35
2022-12-04T15:39:58.717Z,5.25
2022-12-04T15:42:33.039Z,5.72
2022-12-04T15:45:22.098Z,4.82
2022-12-04T15:47:59.823Z,5.43
2022-12-04T15:50:40.975Z,5.03
2022-12-04T15:53:30.149Z,5.38
2022-12-04T15:56:05.718Z,4.65
2022-12-04T16:00:12.478Z,6.53
2022-12-04T16:01:54.815Z,5.65
2022-12-04T16:04:41.176Z,6.55
2022-12-04T16:08:16.647Z,6.13
2022-12-04T16:10:59.219Z,4.90
2022-12-04T16:13:36.629Z,3.95
2022-12-04T16:16:11.240Z,5.13
2022-12-04T16:18:39.516Z,6.68
2022-12-04T16:21:36.975Z,5.10
2022-12-04T16:24:11.775Z,5.57
2022-12-04T16:27:09.566Z,3.33
2022-12-04T16:30:01.978Z,6.35
2022-12-04T16:32:39.598Z,5.78
2022-12-04T16:35:23.482Z,4.22
2022-12-04T16:38:04.101Z,4.60
2022-12-04T16:41:00.361Z,7.22
2022-12-04T16:43:29.128Z,6.95
2022-12-04T16:46:10.055Z,5.50
2022-12-04T16:48:47.428Z,6.28
2022-12-04T16:51:26.419Z,6.57
2022-12-04T17:01:46.927Z,5.35
2022-12-04T17:04:15.640Z,5.80
2022-12-04T17:06:43.538Z,4.32
2022-12-04T17:09:10.773Z,6.00
2022-12-04T17:11:38.460Z,7.32
2022-12-04T17:14:07.453Z,6.38
2022-12-04T17:16:41.811Z,6.65
2022-12-04T17:19:18.101Z,5.50
2022-12-04T17:21:46.304Z,4.78
2022-12-04T17:24:22.634Z,4.72
2022-12-04T17:29:55.071Z,6.57
2022-12-04T17:30:54.917Z,6.53
2022-12-04T17:33:57.485Z,6.18
2022-12-04T17:36:38.918Z,5.97
2022-12-04T17:39:42.383Z,6.63
2022-12-04T17:42:17.769Z,6.75
2022-12-04T17:44:49.559Z,6.63
2022-12-04T17:47:47.438Z,6.85
2022-12-04T17:50:24.450Z,5.45
2022-12-04T17:56:27.283Z,5.93
2022-12-04T17:58:56.744Z,5.70
2022-12-04T18:02:20.933Z,5.18
2022-12-04T18:05:04.489Z,5.70
2022-12-04T18:27:11.263Z,6.55
2022-12-04T18:30:39.582Z,6.43
2022-12-04T18:47:46.733Z,4.65
2022-12-04T18:50:15.011Z,8.50
2022-12-04T18:52:42.389Z,7.35
2022-12-04T18:55:09.964Z,5.63
2022-12-04T18:57:37.034Z,6.00
2022-12-04T19:00:04.791Z,6.78
2022-12-04T19:02:32.353Z,5.43
2022-12-04T19:04:59.600Z,7.57
2022-12-04T19:07:26.927Z,5.30
2022-12-04T19:10:11.291Z,5.88
2022-12-04T19:12:38.772Z,6.53
2022-12-04T19:15:06.127Z,5.32
2022-12-04T19:17:33.068Z,7.78
2022-12-04T19:20:03.239Z,4.72
2022-12-04T19:22:30.471Z,7.50
2022-12-04T19:24:57.311Z,5.40
2022-12-04T19:27:24.528Z,6.85
2022-12-04T19:29:51.495Z,6.45
2022-12-04T19:32:18.880Z,6.05
2022-12-04T19:34:48.515Z,6.30
2022-12-04T19:37:15.811Z,6.55
2022-12-04T19:39:44.474Z,6.30
2022-12-04T19:42:11.482Z,7.15
2022-12-04T19:44:53.782Z,8.27
2022-12-04T19:47:21.111Z,6.13
2022-12-04T19:49:48.189Z,6.60
2022-12-04T19:52:16.680Z,6.35
2022-12-04T19:54:43.632Z,6.43
2022-12-04T19:57:10.739Z,5.78
2022-12-04T19:59:41.753Z,6.53
2022-12-04T20:02:18.794Z,6.05
2022-12-04T20:04:45.827Z,4.82
2022-12-04T20:07:13.447Z,5.28
2022-12-04T20:09:40.701Z,5.82
2022-12-04T20:12:08.298Z,4.63
2022-12-04T20:14:35.663Z,4.65
2022-12-04T20:17:03.966Z,4.07
2022-12-04T20:19:31.499Z,4.05
2022-12-04T20:21:59.621Z,4.15
2022-12-04T20:24:26.725Z,4.05
2022-12-04T20:26:53.652Z,4.80
2022-12-04T20:29:21.543Z,4.50
2022-12-04T20:31:49.496Z,5.00
2022-12-04T20:34:19.410Z,4.75
2022-12-04T20:36:48.438Z,3.22
2022-12-04T20:39:16.769Z,3.15
2022-12-04T20:41:44.088Z,3.55
2022-12-04T20:44:14.317Z,2.30
2022-12-04T20:46:42.514Z,2.58
2022-12-04T20:49:18.784Z,3.72
2022-12-04T20:51:47.964Z,3.17
2022-12-04T20:54:18.598Z,4.20
2022-12-04T20:56:48.481Z,3.25
2022-12-04T20:59:17.963Z,2.35
2022-12-04T21:04:58.349Z,4.13
2022-12-04T21:08:09.351Z,3.30
2022-12-04T21:10:56.949Z,1.77
2022-12-04T21:13:57.623Z,1.90
2022-12-04T21:16:28.734Z,3.30
2022-12-04T21:19:07.864Z,2.60
2022-12-04T21:21:49.572Z,2.70
2022-12-04T21:24:59.592Z,2.22
2022-12-04T21:35:19.540Z,3.03
2022-12-04T21:45:22.637Z,3.42
2022-12-04T22:13:21.841Z,2.85
2022-12-04T22:24:39.065Z,2.22
2022-12-04T22:27:22.773Z,2.47
2022-12-04T22:29:54.854Z,3.17
2022-12-04T22:32:37.274Z,1.95
2022-12-04T22:39:53.588Z,2.42
2022-12-04T22:42:25.154Z,2.20
2022-12-04T23:04:29.121Z,1.73
2022-12-04T23:19:43.701Z,3.30
2022-12-04T23:23:42.857Z,4.03
2022-12-04T23:26:55.403Z,2.92
2022-12-04T23:30:28.384Z,3.28
2022-12-04T23:33:01.471Z,2.70
2022-12-04T23:35:30.545Z,2.63
2022-12-04T23:37:57.910Z,3.35
2022-12-04T23:40:27.218Z,2.85
2022-12-04T23:43:03.111Z,2.50
2022-12-04T23:47:59.854Z,3.15
2022-12-04T23:50:28.890Z,2.17
2022-12-04T23:52:57.858Z,2.22
2022-12-04T23:55:29.747Z,2.03
2022-12-04T23:58:03.213Z,2.50
